sensor_id;sensor_type;location;lat;lon;timestamp;P1;durP1;ratioP1;P2;durP2;ratioP2
37383;SDS011;23258;49.718;11.082;2024-01-11T00:00:54;15.77;;;10.90;;
37383;SDS011;23258;49.718;11.082;2024-01-11T00:03:26;15.87;;;10.37;;
37383;SDS011;23258;49.718;11.082;2024-01-11T00:05:55;15.40;;;10.07;;
37383;SDS011;23258;49.718;11.082;2024-01-11T00:08:25;16.13;;;10.90;;
37383;SDS011;23258;49.718;11.082;2024-01-11T00:10:58;17.70;;;11.23;;
37383;SDS011;23258;49.718;11.082;2024-01-11T00:13:27;14.63;;;10.77;;
37383;SDS011;23258;49.718;11.082;2024-01-11T00:15:57;16.20;;;11.07;;
37383;SDS011;23258;49.718;11.082;2024-01-11T00:18:27;18.17;;;11.10;;
37383;SDS011;23258;49.718;11.082;2024-01-11T00:20:57;15.33;;;10.77;;
37383;SDS011;23258;49.718;11.082;2024-01-11T00:23:26;15.50;;;10.30;;
37383;SDS011;23258;49.718;11.082;2024-01-11T00:25:59;18.17;;;10.37;;
37383;SDS011;23258;49.718;11.082;2024-01-11T00:28:29;12.23;;;9.83;;
37383;SDS011;23258;49.718;11.082;2024-01-11T00:30:58;17.03;;;10.53;;
37383;SDS011;23258;49.718;11.082;2024-01-11T00:33:28;13.93;;;10.03;;
37383;SDS011;23258;49.718;11.082;2024-01-11T00:35:58;13.63;;;9.67;;
37383;SDS011;23258;49.718;11.082;2024-01-11T00:38:28;17.00;;;10.73;;
37383;SDS011;23258;49.718;11.082;2024-01-11T00:41:00;14.23;;;10.00;;
37383;SDS011;23258;49.718;11.082;2024-01-11T00:43:30;14.87;;;9.97;;
37383;SDS011;23258;49.718;11.082;2024-01-11T00:46:00;15.70;;;10.93;;
37383;SDS011;23258;49.718;11.082;2024-01-11T00:48:29;13.67;;;9.73;;
37383;SDS011;23258;49.718;11.082;2024-01-11T00:51:00;16.90;;;10.90;;
37383;SDS011;23258;49.718;11.082;2024-01-11T00:53:30;15.70;;;10.03;;
37383;SDS011;23258;49.718;11.082;2024-01-11T00:56:03;19.70;;;11.20;;
37383;SDS011;23258;49.718;11.082;2024-01-11T00:58:33;16.90;;;10.97;;
37383;SDS011;23258;49.718;11.082;2024-01-11T01:01:03;15.40;;;9.40;;
37383;SDS011;23258;49.718;11.082;2024-01-11T01:03:32;17.10;;;10.47;;
37383;SDS011;23258;49.718;11.082;2024-01-11T01:06:02;17.57;;;10.30;;
37383;SDS011;23258;49.718;11.082;2024-01-11T01:08:32;18.00;;;10.57;;
37383;SDS011;23258;49.718;11.082;2024-01-11T01:11:05;15.50;;;9.87;;
37383;SDS011;23258;49.718;11.082;2024-01-11T01:13:35;19.30;;;10.17;;
37383;SDS011;23258;49.718;11.082;2024-01-11T01:16:05;14.43;;;10.17;;
37383;SDS011;23258;49.718;11.082;2024-01-11T01:18:34;13.40;;;9.90;;
37383;SDS011;23258;49.718;11.082;2024-01-11T01:21:02;14.53;;;10.10;;
37383;SDS011;23258;49.718;11.082;2024-01-11T01:23:33;18.90;;;11.90;;
37383;SDS011;23258;49.718;11.082;2024-01-11T01:26:06;11.03;;;9.13;;
37383;SDS011;23258;49.718;11.082;2024-01-11T01:28:36;12.70;;;9.90;;
37383;SDS011;23258;49.718;11.082;2024-01-11T01:31:06;15.63;;;9.10;;
37383;SDS011;23258;49.718;11.082;2024-01-11T01:33:36;15.80;;;10.13;;
37383;SDS011;23258;49.718;11.082;2024-01-11T01:36:07;16.23;;;10.93;;
37383;SDS011;23258;49.718;11.082;2024-01-11T01:38:37;14.67;;;10.30;;
37383;SDS011;23258;49.718;11.082;2024-01-11T01:41:10;12.90;;;10.63;;
37383;SDS011;23258;49.718;11.082;2024-01-11T01:43:39;17.20;;;10.33;;
37383;SDS011;23258;49.718;11.082;2024-01-11T01:46:09;16.27;;;10.07;;
37383;SDS011;23258;49.718;11.082;2024-01-11T01:48:41;16.37;;;10.10;;
37383;SDS011;23258;49.718;11.082;2024-01-11T01:51:11;19.23;;;10.63;;
37383;SDS011;23258;49.718;11.082;2024-01-11T01:53:41;12.97;;;9.13;;
37383;SDS011;23258;49.718;11.082;2024-01-11T01:56:13;12.90;;;9.77;;
37383;SDS011;23258;49.718;11.082;2024-01-11T01:58:43;15.90;;;10.70;;
37383;SDS011;23258;49.718;11.082;2024-01-11T02:01:13;17.43;;;10.93;;
37383;SDS011;23258;49.718;11.082;2024-01-11T02:03:43;14.80;;;9.83;;
37383;SDS011;23258;49.718;11.082;2024-01-11T02:06:15;14.33;;;9.63;;
37383;SDS011;23258;49.718;11.082;2024-01-11T02:08:45;12.43;;;9.60;;
37383;SDS011;23258;49.718;11.082;2024-01-11T02:11:17;20.63;;;11.17;;
37383;SDS011;23258;49.718;11.082;2024-01-11T02:13:50;17.20;;;9.63;;
37383;SDS011;23258;49.718;11.082;2024-01-11T02:16:20;14.90;;;9.23;;
37383;SDS011;23258;49.718;11.082;2024-01-11T02:18:49;13.43;;;10.27;;
37383;SDS011;23258;49.718;11.082;2024-01-11T02:21:19;14.90;;;9.93;;
37383;SDS011;23258;49.718;11.082;2024-01-11T02:29:27;13.73;;;9.50;;
37383;SDS011;23258;49.718;11.082;2024-01-11T02:31:57;20.87;;;11.10;;
37383;SDS011;23258;49.718;11.082;2024-01-11T02:34:29;15.20;;;11.60;;
37383;SDS011;23258;49.718;11.082;2024-01-11T02:36:59;16.17;;;11.73;;
37383;SDS011;23258;49.718;11.082;2024-01-11T02:39:31;17.13;;;11.53;;
37383;SDS011;23258;49.718;11.082;2024-01-11T02:42:01;17.30;;;11.00;;
37383;SDS011;23258;49.718;11.082;2024-01-11T02:44:33;14.33;;;10.20;;
37383;SDS011;23258;49.718;11.082;2024-01-11T02:47:03;14.40;;;10.53;;
37383;SDS011;23258;49.718;11.082;2024-01-11T02:49:33;15.20;;;10.77;;
37383;SDS011;23258;49.718;11.082;2024-01-11T02:52:03;16.90;;;11.13;;
37383;SDS011;23258;49.718;11.082;2024-01-11T02:54:33;18.83;;;10.80;;
37383;SDS011;23258;49.718;11.082;2024-01-11T02:57:03;13.23;;;10.63;;
37383;SDS011;23258;49.718;11.082;2024-01-11T02:59:36;15.90;;;10.77;;
37383;SDS011;23258;49.718;11.082;2024-01-11T03:02:05;17.00;;;11.10;;
37383;SDS011;23258;49.718;11.082;2024-01-11T03:04:35;16.60;;;12.57;;
37383;SDS011;23258;49.718;11.082;2024-01-11T03:07:05;17.37;;;10.90;;
37383;SDS011;23258;49.718;11.082;2024-01-11T03:09:34;13.63;;;10.57;;
37383;SDS011;23258;49.718;11.082;2024-01-11T03:12:04;14.57;;;11.40;;
37383;SDS011;23258;49.718;11.082;2024-01-11T03:14:37;17.83;;;11.30;;
37383;SDS011;23258;49.718;11.082;2024-01-11T03:17:07;17.83;;;11.50;;
37383;SDS011;23258;49.718;11.082;2024-01-11T03:19:39;18.87;;;12.43;;
37383;SDS011;23258;49.718;11.082;2024-01-11T03:22:08;22.50;;;12.83;;
37383;SDS011;23258;49.718;11.082;2024-01-11T03:24:38;16.57;;;11.27;;
37383;SDS011;23258;49.718;11.082;2024-01-11T03:27:08;16.33;;;12.13;;
37383;SDS011;23258;49.718;11.082;2024-01-11T03:29:40;17.80;;;11.97;;
37383;SDS011;23258;49.718;11.082;2024-01-11T03:32:10;19.30;;;12.97;;
37383;SDS011;23258;49.718;11.082;2024-01-11T03:34:41;20.00;;;12.40;;
37383;SDS011;23258;49.718;11.082;2024-01-11T03:37:10;15.87;;;12.10;;
37383;SDS011;23258;49.718;11.082;2024-01-11T03:39:40;18.10;;;11.40;;
37383;SDS011;23258;49.718;11.082;2024-01-11T03:42:09;19.17;;;12.40;;
37383;SDS011;23258;49.718;11.082;2024-01-11T03:44:42;19.17;;;13.23;;
37383;SDS011;23258;49.718;11.082;2024-01-11T03:47:11;20.33;;;12.23;;
37383;SDS011;23258;49.718;11.082;2024-01-11T03:49:41;17.73;;;12.17;;
37383;SDS011;23258;49.718;11.082;2024-01-11T03:52:11;17.87;;;11.67;;
37383;SDS011;23258;49.718;11.082;2024-01-11T03:54:41;15.43;;;10.90;;
37383;SDS011;23258;49.718;11.082;2024-01-11T03:57:10;17.23;;;11.43;;
37383;SDS011;23258;49.718;11.082;2024-01-11T03:59:43;16.43;;;11.20;;
37383;SDS011;23258;49.718;11.082;2024-01-11T04:02:12;16.20;;;10.80;;
37383;SDS011;23258;49.718;11.082;2024-01-11T04:04:42;18.87;;;12.40;;
37383;SDS011;23258;49.718;11.082;2024-01-11T04:07:12;15.63;;;10.67;;
37383;SDS011;23258;49.718;11.082;2024-01-11T04:09:42;16.47;;;11.40;;
37383;SDS011;23258;49.718;11.082;2024-01-11T04:12:12;21.50;;;11.87;;
37383;SDS011;23258;49.718;11.082;2024-01-11T04:14:44;17.87;;;11.80;;
37383;SDS011;23258;49.718;11.082;2024-01-11T04:17:14;15.83;;;12.83;;
37383;SDS011;23258;49.718;11.082;2024-01-11T04:19:43;19.10;;;12.47;;
37383;SDS011;23258;49.718;11.082;2024-01-11T04:22:13;19.80;;;12.50;;
37383;SDS011;23258;49.718;11.082;2024-01-11T04:24:42;17.53;;;11.67;;
37383;SDS011;23258;49.718;11.082;2024-01-11T04:27:12;14.40;;;11.63;;
37383;SDS011;23258;49.718;11.082;2024-01-11T04:29:44;15.13;;;11.97;;
37383;SDS011;23258;49.718;11.082;2024-01-11T04:32:14;15.97;;;11.33;;
37383;SDS011;23258;49.718;11.082;2024-01-11T04:34:44;16.57;;;11.73;;
37383;SDS011;23258;49.718;11.082;2024-01-11T04:37:13;17.57;;;10.90;;
37383;SDS011;23258;49.718;11.082;2024-01-11T04:39:43;14.47;;;11.33;;
37383;SDS011;23258;49.718;11.082;2024-01-11T04:42:13;17.37;;;11.77;;
37383;SDS011;23258;49.718;11.082;2024-01-11T04:44:45;14.10;;;11.03;;
37383;SDS011;23258;49.718;11.082;2024-01-11T04:47:15;19.30;;;12.50;;
37383;SDS011;23258;49.718;11.082;2024-01-11T04:49:44;16.37;;;11.27;;
37383;SDS011;23258;49.718;11.082;2024-01-11T04:52:14;21.23;;;12.20;;
37383;SDS011;23258;49.718;11.082;2024-01-11T04:54:44;19.93;;;12.73;;
37383;SDS011;23258;49.718;11.082;2024-01-11T04:57:13;19.60;;;11.63;;
37383;SDS011;23258;49.718;11.082;2024-01-11T04:59:46;15.20;;;11.13;;
37383;SDS011;23258;49.718;11.082;2024-01-11T05:02:15;16.13;;;12.03;;
37383;SDS011;23258;49.718;11.082;2024-01-11T05:04:45;15.00;;;11.23;;
37383;SDS011;23258;49.718;11.082;2024-01-11T05:07:15;18.20;;;11.87;;
37383;SDS011;23258;49.718;11.082;2024-01-11T05:09:44;15.33;;;10.97;;
37383;SDS011;23258;49.718;11.082;2024-01-11T05:12:14;19.73;;;12.70;;
37383;SDS011;23258;49.718;11.082;2024-01-11T05:14:46;16.07;;;11.80;;
37383;SDS011;23258;49.718;11.082;2024-01-11T05:17:16;16.77;;;11.73;;
37383;SDS011;23258;49.718;11.082;2024-01-11T05:19:46;22.63;;;11.53;;
37383;SDS011;23258;49.718;11.082;2024-01-11T05:22:15;20.53;;;13.93;;
37383;SDS011;23258;49.718;11.082;2024-01-11T05:24:46;16.37;;;11.83;;
37383;SDS011;23258;49.718;11.082;2024-01-11T05:27:16;24.00;;;12.67;;
37383;SDS011;23258;49.718;11.082;2024-01-11T05:29:48;16.40;;;11.97;;
37383;SDS011;23258;49.718;11.082;2024-01-11T05:32:18;22.27;;;13.13;;
37383;SDS011;23258;49.718;11.082;2024-01-11T05:34:48;21.43;;;13.73;;
37383;SDS011;23258;49.718;11.082;2024-01-11T05:37:18;20.83;;;13.73;;
37383;SDS011;23258;49.718;11.082;2024-01-11T05:39:47;19.13;;;13.47;;
37383;SDS011;23258;49.718;11.082;2024-01-11T05:42:17;20.20;;;12.97;;
37383;SDS011;23258;49.718;11.082;2024-01-11T05:44:50;20.17;;;13.70;;
37383;SDS011;23258;49.718;11.082;2024-01-11T05:47:20;19.80;;;12.93;;
37383;SDS011;23258;49.718;11.082;2024-01-11T05:49:49;21.37;;;12.43;;
37383;SDS011;23258;49.718;11.082;2024-01-11T05:52:19;15.27;;;11.80;;
37383;SDS011;23258;49.718;11.082;2024-01-11T05:54:49;19.23;;;12.37;;
37383;SDS011;23258;49.718;11.082;2024-01-11T05:57:19;21.23;;;13.43;;
37383;SDS011;23258;49.718;11.082;2024-01-11T05:59:51;21.30;;;12.73;;
37383;SDS011;23258;49.718;11.082;2024-01-11T06:02:20;16.80;;;12.17;;
37383;SDS011;23258;49.718;11.082;2024-01-11T06:04:50;18.60;;;12.77;;
37383;SDS011;23258;49.718;11.082;2024-01-11T06:07:20;19.33;;;12.60;;
37383;SDS011;23258;49.718;11.082;2024-01-11T06:09:50;19.50;;;12.93;;
37383;SDS011;23258;49.718;11.082;2024-01-11T06:12:19;21.13;;;14.47;;
37383;SDS011;23258;49.718;11.082;2024-01-11T06:14:52;20.20;;;13.17;;
37383;SDS011;23258;49.718;11.082;2024-01-11T06:17:25;19.20;;;13.07;;
37383;SDS011;23258;49.718;11.082;2024-01-11T06:19:54;21.77;;;14.00;;
37383;SDS011;23258;49.718;11.082;2024-01-11T06:22:24;22.00;;;13.13;;
37383;SDS011;23258;49.718;11.082;2024-01-11T06:24:54;22.40;;;14.20;;
37383;SDS011;23258;49.718;11.082;2024-01-11T06:27:24;18.07;;;12.73;;
37383;SDS011;23258;49.718;11.082;2024-01-11T06:29:56;19.07;;;12.87;;
37383;SDS011;23258;49.718;11.082;2024-01-11T06:32:26;20.63;;;13.33;;
37383;SDS011;23258;49.718;11.082;2024-01-11T06:34:56;24.97;;;15.87;;
37383;SDS011;23258;49.718;11.082;2024-01-11T06:37:25;34.27;;;22.57;;
37383;SDS011;23258;49.718;11.082;2024-01-11T06:39:55;27.87;;;19.80;;
37383;SDS011;23258;49.718;11.082;2024-01-11T06:42:25;21.00;;;16.63;;
37383;SDS011;23258;49.718;11.082;2024-01-11T06:44:53;24.57;;;17.03;;
37383;SDS011;23258;49.718;11.082;2024-01-11T06:47:25;25.43;;;15.97;;
37383;SDS011;23258;49.718;11.082;2024-01-11T06:49:55;23.70;;;16.17;;
37383;SDS011;23258;49.718;11.082;2024-01-11T06:52:26;21.57;;;13.90;;
37383;SDS011;23258;49.718;11.082;2024-01-11T06:54:56;19.03;;;14.43;;
37383;SDS011;23258;49.718;11.082;2024-01-11T06:57:27;23.47;;;15.27;;
37383;SDS011;23258;49.718;11.082;2024-01-11T06:59:57;17.87;;;13.20;;
37383;SDS011;23258;49.718;11.082;2024-01-11T07:02:30;22.37;;;15.20;;
37383;SDS011;23258;49.718;11.082;2024-01-11T07:04:59;20.03;;;14.30;;
37383;SDS011;23258;49.718;11.082;2024-01-11T07:07:29;20.03;;;13.37;;
37383;SDS011;23258;49.718;11.082;2024-01-11T07:09:59;20.57;;;14.10;;
37383;SDS011;23258;49.718;11.082;2024-01-11T07:12:32;20.67;;;13.60;;
37383;SDS011;23258;49.718;11.082;2024-01-11T07:15:04;21.33;;;14.37;;
37383;SDS011;23258;49.718;11.082;2024-01-11T07:17:37;19.37;;;13.63;;
37383;SDS011;23258;49.718;11.082;2024-01-11T07:20:07;19.03;;;13.10;;
37383;SDS011;23258;49.718;11.082;2024-01-11T07:22:38;23.27;;;13.90;;
37383;SDS011;23258;49.718;11.082;2024-01-11T07:25:08;18.73;;;12.03;;
37383;SDS011;23258;49.718;11.082;2024-01-11T07:27:38;18.30;;;12.93;;
37383;SDS011;23258;49.718;11.082;2024-01-11T07:30:09;22.23;;;12.60;;
37383;SDS011;23258;49.718;11.082;2024-01-11T07:32:41;20.03;;;12.97;;
37383;SDS011;23258;49.718;11.082;2024-01-11T07:35:11;18.87;;;12.80;;
37383;SDS011;23258;49.718;11.082;2024-01-11T07:37:44;23.80;;;14.97;;
37383;SDS011;23258;49.718;11.082;2024-01-11T07:40:15;17.27;;;13.97;;
37383;SDS011;23258;49.718;11.082;2024-01-11T07:42:45;20.03;;;13.20;;
37383;SDS011;23258;49.718;11.082;2024-01-11T07:45:15;21.40;;;14.57;;
37383;SDS011;23258;49.718;11.082;2024-01-11T07:47:51;19.30;;;13.07;;
37383;SDS011;23258;49.718;11.082;2024-01-11T07:50:21;17.97;;;12.67;;
37383;SDS011;23258;49.718;11.082;2024-01-11T07:52:48;18.10;;;13.17;;
37383;SDS011;23258;49.718;11.082;2024-01-11T07:55:18;22.23;;;14.57;;
37383;SDS011;23258;49.718;11.082;2024-01-11T07:57:50;17.13;;;14.07;;
37383;SDS011;23258;49.718;11.082;2024-01-11T08:00:21;17.40;;;13.50;;
37383;SDS011;23258;49.718;11.082;2024-01-11T08:02:54;17.10;;;13.07;;
37383;SDS011;23258;49.718;11.082;2024-01-11T08:05:24;16.57;;;12.83;;
37383;SDS011;23258;49.718;11.082;2024-01-11T08:07:54;18.20;;;13.37;;
37383;SDS011;23258;49.718;11.082;2024-01-11T08:10:28;17.13;;;12.47;;
37383;SDS011;23258;49.718;11.082;2024-01-11T08:12:58;21.90;;;13.93;;
37383;SDS011;23258;49.718;11.082;2024-01-11T08:15:28;18.40;;;13.13;;
37383;SDS011;23258;49.718;11.082;2024-01-11T08:18:00;18.83;;;13.37;;
37383;SDS011;23258;49.718;11.082;2024-01-11T08:20:30;22.47;;;14.57;;
37383;SDS011;23258;49.718;11.082;2024-01-11T08:23:00;21.47;;;14.50;;
37383;SDS011;23258;49.718;11.082;2024-01-11T08:25:30;28.73;;;16.77;;
37383;SDS011;23258;49.718;11.082;2024-01-11T08:28:00;25.50;;;16.07;;
37383;SDS011;23258;49.718;11.082;2024-01-11T08:30:29;23.77;;;13.97;;
37383;SDS011;23258;49.718;11.082;2024-01-11T08:33:02;21.37;;;12.60;;
37383;SDS011;23258;49.718;11.082;2024-01-11T08:35:32;15.97;;;12.40;;
37383;SDS011;23258;49.718;11.082;2024-01-11T08:38:02;15.40;;;11.57;;
37383;SDS011;23258;49.718;11.082;2024-01-11T08:40:32;15.33;;;10.90;;
37383;SDS011;23258;49.718;11.082;2024-01-11T08:43:03;16.77;;;10.63;;
37383;SDS011;23258;49.718;11.082;2024-01-11T08:45:33;19.07;;;12.30;;
37383;SDS011;23258;49.718;11.082;2024-01-11T08:48:05;15.50;;;10.83;;
37383;SDS011;23258;49.718;11.082;2024-01-11T08:50:36;18.40;;;11.83;;
37383;SDS011;23258;49.718;11.082;2024-01-11T08:53:07;16.40;;;11.60;;
37383;SDS011;23258;49.718;11.082;2024-01-11T08:55:36;15.97;;;12.03;;
37383;SDS011;23258;49.718;11.082;2024-01-11T08:58:08;16.00;;;11.67;;
37383;SDS011;23258;49.718;11.082;2024-01-11T09:00:38;18.03;;;12.60;;
37383;SDS011;23258;49.718;11.082;2024-01-11T09:03:11;17.17;;;12.20;;
37383;SDS011;23258;49.718;11.082;2024-01-11T09:05:44;17.63;;;13.07;;
37383;SDS011;23258;49.718;11.082;2024-01-11T09:08:14;15.57;;;12.03;;
37383;SDS011;23258;49.718;11.082;2024-01-11T09:10:44;16.73;;;12.17;;
37383;SDS011;23258;49.718;11.082;2024-01-11T09:13:14;21.43;;;12.87;;
37383;SDS011;23258;49.718;11.082;2024-01-11T09:15:44;17.70;;;11.83;;
37383;SDS011;23258;49.718;11.082;2024-01-11T09:18:17;15.57;;;11.57;;
37383;SDS011;23258;49.718;11.082;2024-01-11T09:20:47;17.73;;;11.70;;
37383;SDS011;23258;49.718;11.082;2024-01-11T09:23:17;16.03;;;12.10;;
37383;SDS011;23258;49.718;11.082;2024-01-11T09:25:47;15.80;;;11.63;;
37383;SDS011;23258;49.718;11.082;2024-01-11T09:28:17;16.20;;;11.67;;
37383;SDS011;23258;49.718;11.082;2024-01-11T09:30:46;19.77;;;11.60;;
37383;SDS011;23258;49.718;11.082;2024-01-11T09:33:19;15.60;;;11.57;;
37383;SDS011;23258;49.718;11.082;2024-01-11T09:35:49;15.57;;;11.27;;
37383;SDS011;23258;49.718;11.082;2024-01-11T09:38:19;15.20;;;11.13;;
37383;SDS011;23258;49.718;11.082;2024-01-11T09:40:50;18.73;;;11.43;;
37383;SDS011;23258;49.718;11.082;2024-01-11T09:43:22;16.23;;;12.43;;
37383;SDS011;23258;49.718;11.082;2024-01-11T09:45:53;16.43;;;11.80;;
37383;SDS011;23258;49.718;11.082;2024-01-11T09:48:26;16.97;;;11.93;;
37383;SDS011;23258;49.718;11.082;2024-01-11T09:50:55;19.03;;;12.60;;
37383;SDS011;23258;49.718;11.082;2024-01-11T09:53:27;18.90;;;12.03;;
37383;SDS011;23258;49.718;11.082;2024-01-11T09:55:57;18.30;;;11.83;;
37383;SDS011;23258;49.718;11.082;2024-01-11T09:58:27;18.87;;;13.23;;
37383;SDS011;23258;49.718;11.082;2024-01-11T10:00:58;17.73;;;12.53;;
37383;SDS011;23258;49.718;11.082;2024-01-11T10:03:32;18.60;;;12.63;;
37383;SDS011;23258;49.718;11.082;2024-01-11T10:06:01;13.00;;;11.27;;
37383;SDS011;23258;49.718;11.082;2024-01-11T10:08:31;17.63;;;11.63;;
37383;SDS011;23258;49.718;11.082;2024-01-11T10:11:02;22.97;;;12.37;;
37383;SDS011;23258;49.718;11.082;2024-01-11T10:13:32;17.17;;;13.07;;
37383;SDS011;23258;49.718;11.082;2024-01-11T10:16:06;22.23;;;13.53;;
37383;SDS011;23258;49.718;11.082;2024-01-11T10:18:39;18.77;;;13.93;;
37383;SDS011;23258;49.718;11.082;2024-01-11T10:21:09;18.30;;;13.00;;
37383;SDS011;23258;49.718;11.082;2024-01-11T10:23:39;16.70;;;12.83;;
37383;SDS011;23258;49.718;11.082;2024-01-11T10:26:09;18.83;;;12.60;;
37383;SDS011;23258;49.718;11.082;2024-01-11T10:28:39;19.37;;;12.43;;
37383;SDS011;23258;49.718;11.082;2024-01-11T10:31:08;21.27;;;13.67;;
37383;SDS011;23258;49.718;11.082;2024-01-11T10:33:41;21.00;;;13.73;;
37383;SDS011;23258;49.718;11.082;2024-01-11T10:36:10;22.10;;;13.90;;
37383;SDS011;23258;49.718;11.082;2024-01-11T10:38:40;20.07;;;13.23;;
37383;SDS011;23258;49.718;11.082;2024-01-11T10:41:10;19.60;;;13.57;;
37383;SDS011;23258;49.718;11.082;2024-01-11T10:43:41;19.07;;;13.00;;
37383;SDS011;23258;49.718;11.082;2024-01-11T10:46:12;17.00;;;13.17;;
37383;SDS011;23258;49.718;11.082;2024-01-11T10:48:46;16.80;;;11.83;;
37383;SDS011;23258;49.718;11.082;2024-01-11T10:51:16;18.23;;;12.63;;
37383;SDS011;23258;49.718;11.082;2024-01-11T10:53:48;19.50;;;13.50;;
37383;SDS011;23258;49.718;11.082;2024-01-11T10:56:19;14.80;;;12.10;;
37383;SDS011;23258;49.718;11.082;2024-01-11T10:58:49;16.17;;;11.87;;
37383;SDS011;23258;49.718;11.082;2024-01-11T11:01:20;12.47;;;9.73;;
37383;SDS011;23258;49.718;11.082;2024-01-11T11:03:53;15.70;;;11.03;;
37383;SDS011;23258;49.718;11.082;2024-01-11T11:06:26;12.97;;;9.33;;
37383;SDS011;23258;49.718;11.082;2024-01-11T11:08:57;14.10;;;10.20;;
37383;SDS011;23258;49.718;11.082;2024-01-11T11:11:30;13.40;;;9.63;;
37383;SDS011;23258;49.718;11.082;2024-01-11T11:14:00;14.37;;;9.87;;
37383;SDS011;23258;49.718;11.082;2024-01-11T11:16:30;13.77;;;10.00;;
37383;SDS011;23258;49.718;11.082;2024-01-11T11:19:03;15.40;;;10.43;;
37383;SDS011;23258;49.718;11.082;2024-01-11T11:21:32;14.07;;;10.50;;
37383;SDS011;23258;49.718;11.082;2024-01-11T11:24:03;15.43;;;9.80;;
37383;SDS011;23258;49.718;11.082;2024-01-11T11:26:32;13.10;;;9.33;;
37383;SDS011;23258;49.718;11.082;2024-01-11T11:29:03;16.33;;;11.37;;
37383;SDS011;23258;49.718;11.082;2024-01-11T11:31:36;12.20;;;9.67;;
37383;SDS011;23258;49.718;11.082;2024-01-11T11:34:09;15.47;;;11.33;;
37383;SDS011;23258;49.718;11.082;2024-01-11T11:36:40;12.80;;;10.23;;
37383;SDS011;23258;49.718;11.082;2024-01-11T11:39:11;17.60;;;10.93;;
37383;SDS011;23258;49.718;11.082;2024-01-11T11:41:41;12.50;;;10.10;;
37383;SDS011;23258;49.718;11.082;2024-01-11T11:44:11;14.70;;;10.47;;
37383;SDS011;23258;49.718;11.082;2024-01-11T11:46:41;11.30;;;10.20;;
37383;SDS011;23258;49.718;11.082;2024-01-11T11:49:16;12.87;;;9.63;;
37383;SDS011;23258;49.718;11.082;2024-01-11T11:51:45;16.17;;;10.90;;
37383;SDS011;23258;49.718;11.082;2024-01-11T11:54:15;11.43;;;8.87;;
37383;SDS011;23258;49.718;11.082;2024-01-11T11:56:45;14.50;;;10.17;;
37383;SDS011;23258;49.718;11.082;2024-01-11T11:59:12;15.03;;;11.67;;
37383;SDS011;23258;49.718;11.082;2024-01-11T12:01:42;15.47;;;10.37;;
37383;SDS011;23258;49.718;11.082;2024-01-11T12:04:16;16.87;;;11.00;;
37383;SDS011;23258;49.718;11.082;2024-01-11T12:06:46;17.63;;;11.57;;
37383;SDS011;23258;49.718;11.082;2024-01-11T12:09:18;19.57;;;11.40;;
37383;SDS011;23258;49.718;11.082;2024-01-11T12:11:48;15.17;;;11.70;;
37383;SDS011;23258;49.718;11.082;2024-01-11T12:14:32;15.47;;;10.53;;
37383;SDS011;23258;49.718;11.082;2024-01-11T12:17:02;11.80;;;10.30;;
37383;SDS011;23258;49.718;11.082;2024-01-11T12:19:35;13.50;;;9.83;;
37383;SDS011;23258;49.718;11.082;2024-01-11T12:22:05;14.30;;;10.57;;
37383;SDS011;23258;49.718;11.082;2024-01-11T12:24:34;15.97;;;11.80;;
37383;SDS011;23258;49.718;11.082;2024-01-11T12:27:04;19.43;;;11.17;;
37383;SDS011;23258;49.718;11.082;2024-01-11T12:29:34;17.77;;;11.07;;
37383;SDS011;23258;49.718;11.082;2024-01-11T12:32:18;13.43;;;10.87;;
37383;SDS011;23258;49.718;11.082;2024-01-11T12:34:50;13.70;;;10.40;;
37383;SDS011;23258;49.718;11.082;2024-01-11T12:37:20;14.47;;;10.87;;
37383;SDS011;23258;49.718;11.082;2024-01-11T12:39:50;16.85;;;10.02;;
37383;SDS011;23258;49.718;11.082;2024-01-11T12:42:26;12.50;;;9.82;;
37383;SDS011;23258;49.718;11.082;2024-01-11T12:44:56;14.88;;;11.55;;
37383;SDS011;23258;49.718;11.082;2024-01-11T12:47:26;14.50;;;11.45;;
37383;SDS011;23258;49.718;11.082;2024-01-11T12:49:58;14.85;;;11.18;;
37383;SDS011;23258;49.718;11.082;2024-01-11T12:52:28;11.30;;;9.68;;
37383;SDS011;23258;49.718;11.082;2024-01-11T12:54:58;17.95;;;10.30;;
37383;SDS011;23258;49.718;11.082;2024-01-11T12:57:27;14.20;;;10.77;;
37383;SDS011;23258;49.718;11.082;2024-01-11T13:00:08;18.42;;;10.48;;
37383;SDS011;23258;49.718;11.082;2024-01-11T13:02:38;14.35;;;10.55;;
37383;SDS011;23258;49.718;11.082;2024-01-11T13:05:12;11.27;;;9.40;;
37383;SDS011;23258;49.718;11.082;2024-01-11T13:07:42;15.60;;;11.27;;
37383;SDS011;23258;49.718;11.082;2024-01-11T13:10:15;13.48;;;11.00;;
37383;SDS011;23258;49.718;11.082;2024-01-11T13:12:45;13.05;;;10.27;;
37383;SDS011;23258;49.718;11.082;2024-01-11T13:15:22;12.93;;;10.68;;
37383;SDS011;23258;49.718;11.082;2024-01-11T13:17:52;13.55;;;9.07;;
37383;SDS011;23258;49.718;11.082;2024-01-11T13:20:26;12.57;;;8.77;;
37383;SDS011;23258;49.718;11.082;2024-01-11T13:23:11;12.73;;;10.02;;
37383;SDS011;23258;49.718;11.082;2024-01-11T13:25:41;9.85;;;8.60;;
37383;SDS011;23258;49.718;11.082;2024-01-11T13:28:11;13.48;;;8.88;;
37383;SDS011;23258;49.718;11.082;2024-01-11T13:30:42;11.18;;;9.23;;
37383;SDS011;23258;49.718;11.082;2024-01-11T13:33:13;11.38;;;9.25;;
37383;SDS011;23258;49.718;11.082;2024-01-11T13:35:47;15.25;;;9.57;;
37383;SDS011;23258;49.718;11.082;2024-01-11T13:38:17;15.80;;;10.05;;
37383;SDS011;23258;49.718;11.082;2024-01-11T13:40:51;13.25;;;9.30;;
37383;SDS011;23258;49.718;11.082;2024-01-11T13:43:20;11.80;;;9.38;;
37383;SDS011;23258;49.718;11.082;2024-01-11T13:45:50;14.70;;;10.55;;
37383;SDS011;23258;49.718;11.082;2024-01-11T13:48:21;12.93;;;10.32;;
37383;SDS011;23258;49.718;11.082;2024-01-11T13:50:53;15.98;;;10.70;;
37383;SDS011;23258;49.718;11.082;2024-01-11T13:53:23;14.40;;;10.20;;
37383;SDS011;23258;49.718;11.082;2024-01-11T13:55:53;15.68;;;10.13;;
37383;SDS011;23258;49.718;11.082;2024-01-11T13:58:23;12.38;;;10.40;;
37383;SDS011;23258;49.718;11.082;2024-01-11T14:00:52;14.68;;;10.50;;
37383;SDS011;23258;49.718;11.082;2024-01-11T14:03:24;12.68;;;9.98;;
37383;SDS011;23258;49.718;11.082;2024-01-11T14:05:56;15.70;;;9.85;;
37383;SDS011;23258;49.718;11.082;2024-01-11T14:08:27;12.30;;;9.27;;
37383;SDS011;23258;49.718;11.082;2024-01-11T14:10:57;12.23;;;10.27;;
37383;SDS011;23258;49.718;11.082;2024-01-11T14:13:26;10.60;;;9.50;;
37383;SDS011;23258;49.718;11.082;2024-01-11T14:15:56;12.55;;;10.27;;
37383;SDS011;23258;49.718;11.082;2024-01-11T14:18:26;11.70;;;10.38;;
37383;SDS011;23258;49.718;11.082;2024-01-11T14:20:58;11.82;;;10.23;;
37383;SDS011;23258;49.718;11.082;2024-01-11T14:23:28;13.20;;;10.27;;
37383;SDS011;23258;49.718;11.082;2024-01-11T14:25:58;13.00;;;9.93;;
37383;SDS011;23258;49.718;11.082;2024-01-11T14:28:28;12.75;;;10.18;;
37383;SDS011;23258;49.718;11.082;2024-01-11T14:30:58;13.45;;;10.60;;
37383;SDS011;23258;49.718;11.082;2024-01-11T14:33:27;13.63;;;10.60;;
37383;SDS011;23258;49.718;11.082;2024-01-11T14:36:00;10.48;;;9.07;;